sensor_id;sensor_type;location;lat;lon;timestamp;pressure;altitude;pressure_sealevel;temperature;humidity
10518;BME280;5307;42.548;22.968;2022-09-03T00:01:05;93801.63;;;16.81;100.00
10518;BME280;5307;42.548;22.968;2022-09-03T00:03:39;93798.38;;;16.83;100.00
10518;BME280;5307;42.548;22.968;2022-09-03T00:06:12;93797.28;;;16.75;100.00
10518;BME280;5307;42.548;22.968;2022-09-03T00:08:45;93802.28;;;16.71;100.00
10518;BME280;5307;42.548;22.968;2022-09-03T00:11:18;93796.81;;;17.08;100.00
10518;BME280;5307;42.548;22.968;2022-09-03T00:13:49;93786.84;;;16.84;99.98
10518;BME280;5307;42.548;22.968;2022-09-03T00:16:19;93781.97;;;16.74;100.00
10518;BME280;5307;42.548;22.968;2022-09-03T00:18:50;93765.03;;;16.86;100.00
10518;BME280;5307;42.548;22.968;2022-09-03T00:21:25;93770.88;;;16.94;100.00
10518;BME280;5307;42.548;22.968;2022-09-03T00:23:54;93760.22;;;17.13;99.85
10518;BME280;5307;42.548;22.968;2022-09-03T00:26:27;93763.72;;;17.13;97.81
10518;BME280;5307;42.548;22.968;2022-09-03T00:28:58;93773.50;;;17.14;98.45
10518;BME280;5307;42.548;22.968;2022-09-03T00:31:30;93774.50;;;17.11;97.93
10518;BME280;5307;42.548;22.968;2022-09-03T00:34:02;93777.25;;;17.06;96.79
10518;BME280;5307;42.548;22.968;2022-09-03T00:36:34;93773.91;;;16.96;96.80
10518;BME280;5307;42.548;22.968;2022-09-03T00:39:09;93772.91;;;16.99;97.04
10518;BME280;5307;42.548;22.968;2022-09-03T00:41:42;93778.16;;;16.97;98.06
10518;BME280;5307;42.548;22.968;2022-09-03T00:44:24;93779.19;;;17.00;98.32
10518;BME280;5307;42.548;22.968;2022-09-03T00:46:56;93780.50;;;17.04;98.69
10518;BME280;5307;42.548;22.968;2022-09-03T00:49:35;93771.53;;;16.83;99.20
10518;BME280;5307;42.548;22.968;2022-09-03T00:52:10;93791.34;;;16.82;98.80
10518;BME280;5307;42.548;22.968;2022-09-03T00:54:45;93799.75;;;16.99;98.94
10518;BME280;5307;42.548;22.968;2022-09-03T00:57:25;93795.31;;;17.07;100.00
10518;BME280;5307;42.548;22.968;2022-09-03T01:00:02;93789.84;;;16.81;100.00
10518;BME280;5307;42.548;22.968;2022-09-03T01:02:40;93786.09;;;16.84;100.00
10518;BME280;5307;42.548;22.968;2022-09-03T01:05:23;93795.78;;;16.74;100.00
10518;BME280;5307;42.548;22.968;2022-09-03T01:08:00;93805.72;;;16.66;100.00
10518;BME280;5307;42.548;22.968;2022-09-03T01:10:36;93803.97;;;16.42;100.00
10518;BME280;5307;42.548;22.968;2022-09-03T01:13:13;93808.09;;;16.52;100.00
10518;BME280;5307;42.548;22.968;2022-09-03T01:15:48;93813.84;;;16.75;100.00
10518;BME280;5307;42.548;22.968;2022-09-03T01:18:22;93818.66;;;16.80;100.00
10518;BME280;5307;42.548;22.968;2022-09-03T01:21:03;93819.34;;;16.75;100.00
10518;BME280;5307;42.548;22.968;2022-09-03T01:24:13;93828.88;;;16.74;100.00
10518;BME280;5307;42.548;22.968;2022-09-03T01:26:54;93833.63;;;16.47;100.00
10518;BME280;5307;42.548;22.968;2022-09-03T01:29:35;93827.59;;;16.69;100.00
10518;BME280;5307;42.548;22.968;2022-09-03T01:32:10;93832.91;;;16.52;100.00
10518;BME280;5307;42.548;22.968;2022-09-03T01:34:48;93829.81;;;16.45;100.00
10518;BME280;5307;42.548;22.968;2022-09-03T01:37:29;93830.06;;;16.67;100.00
10518;BME280;5307;42.548;22.968;2022-09-03T01:40:06;93840.31;;;16.41;100.00
10518;BME280;5307;42.548;22.968;2022-09-03T01:42:43;93830.69;;;16.56;99.57
10518;BME280;5307;42.548;22.968;2022-09-03T01:45:23;93832.69;;;16.56;97.44
10518;BME280;5307;42.548;22.968;2022-09-03T01:48:09;93829.81;;;16.45;96.60
10518;BME280;5307;42.548;22.968;2022-09-03T01:50:43;93829.56;;;16.43;96.76
10518;BME280;5307;42.548;22.968;2022-09-03T01:53:24;93831.19;;;16.55;97.41
10518;BME280;5307;42.548;22.968;2022-09-03T01:56:05;93825.19;;;16.56;96.51
10518;BME280;5307;42.548;22.968;2022-09-03T01:58:38;93826.75;;;16.63;95.48
10518;BME280;5307;42.548;22.968;2022-09-03T02:01:13;93826.28;;;16.65;94.53
10518;BME280;5307;42.548;22.968;2022-09-03T02:03:43;93833.03;;;16.63;96.04
10518;BME280;5307;42.548;22.968;2022-09-03T02:06:11;93826.91;;;16.54;94.51
10518;BME280;5307;42.548;22.968;2022-09-03T02:08:38;93837.56;;;16.67;95.50
10518;BME280;5307;42.548;22.968;2022-09-03T02:11:08;93825.94;;;16.57;93.62
10518;BME280;5307;42.548;22.968;2022-09-03T02:13:38;93836.19;;;16.56;93.41
10518;BME280;5307;42.548;22.968;2022-09-03T02:16:11;93823.66;;;16.55;93.99
10518;BME280;5307;42.548;22.968;2022-09-03T02:18:42;93824.41;;;16.56;94.51
10518;BME280;5307;42.548;22.968;2022-09-03T02:21:12;93836.88;;;16.72;93.90
10518;BME280;5307;42.548;22.968;2022-09-03T02:23:40;93831.09;;;16.70;93.84
10518;BME280;5307;42.548;22.968;2022-09-03T02:26:09;93836.13;;;16.71;93.19
10518;BME280;5307;42.548;22.968;2022-09-03T02:28:37;93838.91;;;16.51;92.56
10518;BME280;5307;42.548;22.968;2022-09-03T02:31:04;93840.09;;;16.44;95.09
10518;BME280;5307;42.548;22.968;2022-09-03T02:33:36;93840.63;;;16.69;93.50
10518;BME280;5307;42.548;22.968;2022-09-03T02:36:06;93833.28;;;16.66;93.43
10518;BME280;5307;42.548;22.968;2022-09-03T02:38:33;93824.69;;;16.58;93.83
10518;BME280;5307;42.548;22.968;2022-09-03T02:40:59;93829.59;;;16.69;92.53
10518;BME280;5307;42.548;22.968;2022-09-03T02:43:40;93834.69;;;16.55;94.18
10518;BME280;5307;42.548;22.968;2022-09-03T02:46:09;93835.91;;;16.75;93.17
10518;BME280;5307;42.548;22.968;2022-09-03T02:48:39;93837.78;;;16.37;93.41
10518;BME280;5307;42.548;22.968;2022-09-03T02:51:06;93840.44;;;16.52;94.29
10518;BME280;5307;42.548;22.968;2022-09-03T02:53:33;93839.06;;;16.42;93.26
10518;BME280;5307;42.548;22.968;2022-09-03T02:56:00;93835.03;;;16.63;93.96
10518;BME280;5307;42.548;22.968;2022-09-03T02:58:28;93834.28;;;16.62;93.33
10518;BME280;5307;42.548;22.968;2022-09-03T03:00:56;93837.69;;;16.78;92.26
10518;BME280;5307;42.548;22.968;2022-09-03T03:03:23;93821.34;;;16.74;92.78
10518;BME280;5307;42.548;22.968;2022-09-03T03:05:53;93815.03;;;16.68;91.75
10518;BME280;5307;42.548;22.968;2022-09-03T03:08:23;93810.16;;;16.83;92.87
10518;BME280;5307;42.548;22.968;2022-09-03T03:10:51;93813.50;;;16.93;92.48
10518;BME280;5307;42.548;22.968;2022-09-03T03:13:18;93820.66;;;16.79;93.05
10518;BME280;5307;42.548;22.968;2022-09-03T03:15:45;93817.09;;;16.73;93.46
10518;BME280;5307;42.548;22.968;2022-09-03T03:18:12;93822.09;;;16.75;92.89
10518;BME280;5307;42.548;22.968;2022-09-03T03:20:39;93828.59;;;16.72;92.53
10518;BME280;5307;42.548;22.968;2022-09-03T03:23:09;93828.00;;;16.88;93.37
10518;BME280;5307;42.548;22.968;2022-09-03T03:25:37;93831.19;;;16.81;93.05
10518;BME280;5307;42.548;22.968;2022-09-03T03:28:05;93815.69;;;16.83;92.72
10518;BME280;5307;42.548;22.968;2022-09-03T03:30:33;93815.91;;;16.80;92.37
10518;BME280;5307;42.548;22.968;2022-09-03T03:33:02;93822.06;;;16.69;91.59
10518;BME280;5307;42.548;22.968;2022-09-03T03:35:30;93832.94;;;16.78;94.31
10518;BME280;5307;42.548;22.968;2022-09-03T03:37:57;93836.94;;;16.77;93.38
10518;BME280;5307;42.548;22.968;2022-09-03T03:40:25;93833.84;;;16.70;92.70
10518;BME280;5307;42.548;22.968;2022-09-03T03:42:52;93828.75;;;16.62;93.47
10518;BME280;5307;42.548;22.968;2022-09-03T03:45:19;93829.47;;;16.83;92.75
10518;BME280;5307;42.548;22.968;2022-09-03T03:47:46;93829.28;;;16.67;93.56
10518;BME280;5307;42.548;22.968;2022-09-03T03:50:13;93832.72;;;16.82;93.09
10518;BME280;5307;42.548;22.968;2022-09-03T03:52:41;93830.75;;;16.88;92.53
10518;BME280;5307;42.548;22.968;2022-09-03T03:55:08;93835.47;;;16.82;91.89
10518;BME280;5307;42.548;22.968;2022-09-03T03:57:36;93830.22;;;16.84;92.63
10518;BME280;5307;42.548;22.968;2022-09-03T04:00:04;93835.47;;;16.82;92.49
10518;BME280;5307;42.548;22.968;2022-09-03T04:02:32;93835.47;;;16.82;92.54
10518;BME280;5307;42.548;22.968;2022-09-03T04:04:59;93840.53;;;16.89;93.04
10518;BME280;5307;42.548;22.968;2022-09-03T04:07:26;93842.59;;;16.94;93.65
10518;BME280;5307;42.548;22.968;2022-09-03T04:09:52;93842.53;;;16.88;93.01
10518;BME280;5307;42.548;22.968;2022-09-03T04:12:19;93856.34;;;16.88;92.58
10518;BME280;5307;42.548;22.968;2022-09-03T04:14:47;93856.56;;;16.85;92.80
10518;BME280;5307;42.548;22.968;2022-09-03T04:17:14;93866.09;;;16.84;94.39
10518;BME280;5307;42.548;22.968;2022-09-03T04:19:41;93860.03;;;16.80;92.91
10518;BME280;5307;42.548;22.968;2022-09-03T04:22:08;93860.34;;;16.87;93.59
10518;BME280;5307;42.548;22.968;2022-09-03T04:24:34;93873.41;;;16.67;95.49
10518;BME280;5307;42.548;22.968;2022-09-03T04:27:01;93873.00;;;16.74;95.59
10518;BME280;5307;42.548;22.968;2022-09-03T04:29:28;93878.84;;;16.81;93.83
10518;BME280;5307;42.548;22.968;2022-09-03T04:31:57;93870.53;;;16.76;95.76
10518;BME280;5307;42.548;22.968;2022-09-03T04:34:41;93870.31;;;16.79;97.49
10518;BME280;5307;42.548;22.968;2022-09-03T04:37:07;93880.31;;;16.77;98.07
10518;BME280;5307;42.548;22.968;2022-09-03T04:39:35;93885.53;;;16.75;97.59
10518;BME280;5307;42.548;22.968;2022-09-03T04:42:02;93885.84;;;16.77;96.48
10518;BME280;5307;42.548;22.968;2022-09-03T04:44:28;93881.13;;;16.83;96.79
10518;BME280;5307;42.548;22.968;2022-09-03T04:46:56;93890.63;;;16.82;97.40
10518;BME280;5307;42.548;22.968;2022-09-03T04:49:23;93887.72;;;16.91;97.61
10518;BME280;5307;42.548;22.968;2022-09-03T04:51:50;93892.31;;;16.74;97.53
10518;BME280;5307;42.548;22.968;2022-09-03T04:54:17;93890.81;;;16.52;97.80
10518;BME280;5307;42.548;22.968;2022-09-03T04:56:44;93896.44;;;16.84;97.13
10518;BME280;5307;42.548;22.968;2022-09-03T04:59:10;93887.66;;;16.85;95.91
10518;BME280;5307;42.548;22.968;2022-09-03T05:01:38;93895.22;;;16.65;95.51
10518;BME280;5307;42.548;22.968;2022-09-03T05:04:07;93898.03;;;16.70;94.94
10518;BME280;5307;42.548;22.968;2022-09-03T05:06:35;93900.56;;;16.74;95.41
10518;BME280;5307;42.548;22.968;2022-09-03T05:09:03;93899.81;;;16.73;95.06
10518;BME280;5307;42.548;22.968;2022-09-03T05:11:30;93894.41;;;16.84;94.28
10518;BME280;5307;42.548;22.968;2022-09-03T05:13:58;93900.91;;;16.81;93.06
10518;BME280;5307;42.548;22.968;2022-09-03T05:16:26;93887.53;;;17.00;92.37
10518;BME280;5307;42.548;22.968;2022-09-03T05:18:56;93889.78;;;16.96;92.40
10518;BME280;5307;42.548;22.968;2022-09-03T05:21:25;93894.75;;;16.92;91.17
10518;BME280;5307;42.548;22.968;2022-09-03T05:23:53;93897.22;;;17.16;89.34
10518;BME280;5307;42.548;22.968;2022-09-03T05:26:21;93900.66;;;17.05;90.07
10518;BME280;5307;42.548;22.968;2022-09-03T05:28:52;93907.31;;;17.56;86.52
10518;BME280;5307;42.548;22.968;2022-09-03T05:31:20;93905.59;;;17.96;85.85
10518;BME280;5307;42.548;22.968;2022-09-03T05:33:48;93894.78;;;18.46;82.51
10518;BME280;5307;42.548;22.968;2022-09-03T05:36:18;93907.84;;;18.46;82.52
10518;BME280;5307;42.548;22.968;2022-09-03T05:38:46;93912.69;;;18.08;83.59
10518;BME280;5307;42.548;22.968;2022-09-03T05:41:15;93913.38;;;17.92;84.55
10518;BME280;5307;42.548;22.968;2022-09-03T05:43:42;93911.66;;;18.00;83.02
10518;BME280;5307;42.548;22.968;2022-09-03T05:46:10;93910.19;;;18.04;83.89
10518;BME280;5307;42.548;22.968;2022-09-03T05:48:39;93913.31;;;17.86;83.39
10518;BME280;5307;42.548;22.968;2022-09-03T05:51:08;93908.63;;;17.61;85.16
10518;BME280;5307;42.548;22.968;2022-09-03T05:53:37;93908.94;;;17.68;86.63
10518;BME280;5307;42.548;22.968;2022-09-03T05:56:08;93910.09;;;17.88;85.97
10518;BME280;5307;42.548;22.968;2022-09-03T05:58:37;93909.53;;;17.84;87.13
10518;BME280;5307;42.548;22.968;2022-09-03T06:01:11;93914.94;;;17.35;87.16
10518;BME280;5307;42.548;22.968;2022-09-03T06:03:40;93917.84;;;17.52;86.63
10518;BME280;5307;42.548;22.968;2022-09-03T06:06:07;93895.28;;;17.59;86.64
10518;BME280;5307;42.548;22.968;2022-09-03T06:08:35;93920.44;;;17.61;86.35
10518;BME280;5307;42.548;22.968;2022-09-03T06:11:04;93908.88;;;17.63;86.23
10518;BME280;5307;42.548;22.968;2022-09-03T06:13:33;93907.50;;;17.78;84.59
10518;BME280;5307;42.548;22.968;2022-09-03T06:16:02;93920.56;;;17.46;85.52
10518;BME280;5307;42.548;22.968;2022-09-03T06:18:30;93918.16;;;17.60;86.03
10518;BME280;5307;42.548;22.968;2022-09-03T06:20:58;93920.50;;;17.72;84.46
10518;BME280;5307;42.548;22.968;2022-09-03T06:23:27;93931.16;;;17.85;88.49
10518;BME280;5307;42.548;22.968;2022-09-03T06:26:01;93934.97;;;17.88;87.18
10518;BME280;5307;42.548;22.968;2022-09-03T06:28:29;93933.91;;;17.85;86.95
10518;BME280;5307;42.548;22.968;2022-09-03T06:31:01;93926.25;;;18.06;86.29
10518;BME280;5307;42.548;22.968;2022-09-03T06:33:28;93928.97;;;17.95;83.50
10518;BME280;5307;42.548;22.968;2022-09-03T06:35:56;93920.44;;;17.98;85.30
10518;BME280;5307;42.548;22.968;2022-09-03T06:38:24;93927.31;;;18.14;86.10
10518;BME280;5307;42.548;22.968;2022-09-03T06:40:53;93931.56;;;18.09;83.35
10518;BME280;5307;42.548;22.968;2022-09-03T06:43:20;93929.84;;;18.18;85.27
10518;BME280;5307;42.548;22.968;2022-09-03T06:45:55;93937.16;;;18.21;84.90
10518;BME280;5307;42.548;22.968;2022-09-03T06:48:24;93932.47;;;17.95;82.88
10518;BME280;5307;42.548;22.968;2022-09-03T06:50:56;93942.13;;;18.11;84.02
10518;BME280;5307;42.548;22.968;2022-09-03T06:53:25;93946.56;;;17.97;84.53
10518;BME280;5307;42.548;22.968;2022-09-03T06:55:54;93942.63;;;18.15;84.18
10518;BME280;5307;42.548;22.968;2022-09-03T06:58:23;93952.66;;;17.70;85.66
10518;BME280;5307;42.548;22.968;2022-09-03T07:00:53;93941.53;;;17.64;85.49
10518;BME280;5307;42.548;22.968;2022-09-03T07:03:20;93946.22;;;17.52;86.44
10518;BME280;5307;42.548;22.968;2022-09-03T07:06:00;93943.22;;;17.56;86.21
10518;BME280;5307;42.548;22.968;2022-09-03T07:08:32;93945.53;;;17.95;87.47
10518;BME280;5307;42.548;22.968;2022-09-03T07:11:05;93954.50;;;17.84;85.71
10518;BME280;5307;42.548;22.968;2022-09-03T07:13:35;93964.00;;;17.77;86.57
10518;BME280;5307;42.548;22.968;2022-09-03T07:16:03;93962.75;;;17.78;86.80
10518;BME280;5307;42.548;22.968;2022-09-03T07:18:31;93958.91;;;18.02;85.45
10518;BME280;5307;42.548;22.968;2022-09-03T07:21:01;93963.22;;;18.08;84.37
10518;BME280;5307;42.548;22.968;2022-09-03T07:23:29;93968.56;;;17.80;85.80
10518;BME280;5307;42.548;22.968;2022-09-03T07:25:57;93969.50;;;18.09;85.77
10518;BME280;5307;42.548;22.968;2022-09-03T07:28:25;93979.56;;;17.75;85.67
10518;BME280;5307;42.548;22.968;2022-09-03T07:30:53;93968.81;;;17.83;85.84
10518;BME280;5307;42.548;22.968;2022-09-03T07:33:20;93965.41;;;17.99;84.95
10518;BME280;5307;42.548;22.968;2022-09-03T07:35:47;93972.78;;;18.13;85.72
10518;BME280;5307;42.548;22.968;2022-09-03T07:38:17;93975.91;;;18.32;84.50
10518;BME280;5307;42.548;22.968;2022-09-03T07:40:44;93976.69;;;18.32;83.96
10518;BME280;5307;42.548;22.968;2022-09-03T07:43:12;93979.97;;;18.36;84.27
10518;BME280;5307;42.548;22.968;2022-09-03T07:45:39;93983.41;;;18.26;84.63
10518;BME280;5307;42.548;22.968;2022-09-03T07:48:10;93984.75;;;17.99;84.39
10518;BME280;5307;42.548;22.968;2022-09-03T07:50:36;93993.03;;;18.42;84.65
10518;BME280;5307;42.548;22.968;2022-09-03T07:53:03;93989.75;;;18.37;82.76
10518;BME280;5307;42.548;22.968;2022-09-03T07:55:31;93986.00;;;18.35;83.00
10518;BME280;5307;42.548;22.968;2022-09-03T07:57:58;93983.66;;;18.71;80.57
10518;BME280;5307;42.548;22.968;2022-09-03T08:00:25;93981.06;;;19.26;80.31
10518;BME280;5307;42.548;22.968;2022-09-03T08:02:52;93986.16;;;19.95;78.43
10518;BME280;5307;42.548;22.968;2022-09-03T08:05:19;93981.50;;;20.70;76.23
10518;BME280;5307;42.548;22.968;2022-09-03T08:07:46;93977.66;;;21.43;71.49
10518;BME280;5307;42.548;22.968;2022-09-03T08:10:13;93979.97;;;21.33;74.32
10518;BME280;5307;42.548;22.968;2022-09-03T08:12:42;93983.44;;;20.98;70.60
10518;BME280;5307;42.548;22.968;2022-09-03T08:15:09;93974.34;;;21.44;69.27
10518;BME280;5307;42.548;22.968;2022-09-03T08:17:36;93982.56;;;22.27;66.67
10518;BME280;5307;42.548;22.968;2022-09-03T08:20:03;93967.84;;;20.84;70.42
10518;BME280;5307;42.548;22.968;2022-09-03T08:22:30;93976.69;;;21.23;71.26
10518;BME280;5307;42.548;22.968;2022-09-03T08:24:57;93976.69;;;21.70;70.30
10518;BME280;5307;42.548;22.968;2022-09-03T08:27:24;93980.97;;;21.36;70.68
10518;BME280;5307;42.548;22.968;2022-09-03T08:29:53;93979.50;;;21.29;70.69
10518;BME280;5307;42.548;22.968;2022-09-03T08:32:20;93981.34;;;21.56;67.37
10518;BME280;5307;42.548;22.968;2022-09-03T08:34:47;93973.34;;;21.77;68.33
10518;BME280;5307;42.548;22.968;2022-09-03T08:37:15;93966.59;;;21.31;69.01
10518;BME280;5307;42.548;22.968;2022-09-03T08:39:42;93962.34;;;21.19;70.21
10518;BME280;5307;42.548;22.968;2022-09-03T08:42:36;93967.19;;;21.13;68.43
10518;BME280;5307;42.548;22.968;2022-09-03T08:45:08;93975.03;;;21.56;69.33
10518;BME280;5307;42.548;22.968;2022-09-03T08:47:41;93960.78;;;21.24;67.63
10518;BME280;5307;42.548;22.968;2022-09-03T08:50:12;93955.94;;;20.89;68.79
10518;BME280;5307;42.548;22.968;2022-09-03T08:52:45;93971.81;;;20.94;70.20
10518;BME280;5307;42.548;22.968;2022-09-03T08:55:18;93978.22;;;21.24;69.86
10518;BME280;5307;42.548;22.968;2022-09-03T08:57:48;93973.25;;;21.58;69.35
10518;BME280;5307;42.548;22.968;2022-09-03T09:00:18;93969.63;;;21.22;66.69
10518;BME280;5307;42.548;22.968;2022-09-03T09:02:54;93965.88;;;21.61;66.35
10518;BME280;5307;42.548;22.968;2022-09-03T09:05:32;93972.59;;;22.07;67.53
10518;BME280;5307;42.548;22.968;2022-09-03T09:08:07;93972.09;;;23.25;64.08
10518;BME280;5307;42.548;22.968;2022-09-03T09:10:40;93974.03;;;22.19;64.03
10518;BME280;5307;42.548;22.968;2022-09-03T09:13:17;93967.94;;;22.45;61.91
10518;BME280;5307;42.548;22.968;2022-09-03T09:15:53;93972.41;;;22.29;62.94
10518;BME280;5307;42.548;22.968;2022-09-03T09:18:37;93977.38;;;22.36;63.65
10518;BME280;5307;42.548;22.968;2022-09-03T09:21:14;93978.66;;;22.35;64.21
10518;BME280;5307;42.548;22.968;2022-09-03T09:23:43;93975.06;;;22.89;64.09
10518;BME280;5307;42.548;22.968;2022-09-03T09:26:14;93983.31;;;23.38;61.53
10518;BME280;5307;42.548;22.968;2022-09-03T09:28:44;93978.94;;;23.24;63.19
10518;BME280;5307;42.548;22.968;2022-09-03T09:31:14;93982.41;;;23.67;61.77
10518;BME280;5307;42.548;22.968;2022-09-03T09:33:43;93980.19;;;24.11;60.77
10518;BME280;5307;42.548;22.968;2022-09-03T09:36:12;93987.25;;;24.84;59.29
10518;BME280;5307;42.548;22.968;2022-09-03T09:38:40;93981.03;;;23.55;57.68
10518;BME280;5307;42.548;22.968;2022-09-03T09:41:09;93985.84;;;24.06;56.57
10518;BME280;5307;42.548;22.968;2022-09-03T09:43:36;93978.09;;;23.10;58.41
10518;BME280;5307;42.548;22.968;2022-09-03T09:46:08;93990.97;;;23.32;56.00
10518;BME280;5307;42.548;22.968;2022-09-03T09:48:48;93983.81;;;22.99;57.42
10518;BME280;5307;42.548;22.968;2022-09-03T09:51:20;93977.81;;;23.51;56.76
10518;BME280;5307;42.548;22.968;2022-09-03T09:53:58;93974.38;;;23.77;57.41
10518;BME280;5307;42.548;22.968;2022-09-03T09:56:25;93983.94;;;22.88;59.90
10518;BME280;5307;42.548;22.968;2022-09-03T09:59:01;93982.50;;;22.02;60.22
10518;BME280;5307;42.548;22.968;2022-09-03T10:01:28;93975.53;;;23.12;60.89
10518;BME280;5307;42.548;22.968;2022-09-03T10:03:59;93981.47;;;23.22;58.63
10518;BME280;5307;42.548;22.968;2022-09-03T10:06:28;93979.03;;;23.37;60.46
10518;BME280;5307;42.548;22.968;2022-09-03T10:09:14;93973.19;;;23.35;56.81
10518;BME280;5307;42.548;22.968;2022-09-03T10:11:43;93982.25;;;23.60;57.12
10518;BME280;5307;42.548;22.968;2022-09-03T10:14:22;93975.31;;;22.67;58.77
10518;BME280;5307;42.548;22.968;2022-09-03T10:16:56;93972.91;;;23.38;57.76
10518;BME280;5307;42.548;22.968;2022-09-03T10:19:38;93972.81;;;23.44;57.67
10518;BME280;5307;42.548;22.968;2022-09-03T10:22:09;93960.69;;;23.60;56.97
10518;BME280;5307;42.548;22.968;2022-09-03T10:24:43;93963.84;;;23.32;58.10
10518;BME280;5307;42.548;22.968;2022-09-03T10:27:15;93956.47;;;23.54;57.24
10518;BME280;5307;42.548;22.968;2022-09-03T10:29:43;93949.53;;;23.79;55.35
10518;BME280;5307;42.548;22.968;2022-09-03T10:32:21;93960.75;;;24.19;55.81
10518;BME280;5307;42.548;22.968;2022-09-03T10:35:02;93955.97;;;23.87;55.38
10518;BME280;5307;42.548;22.968;2022-09-03T10:37:36;93958.31;;;24.28;56.95
10518;BME280;5307;42.548;22.968;2022-09-03T10:40:14;93966.19;;;23.98;54.90
10518;BME280;5307;42.548;22.968;2022-09-03T10:42:47;93952.22;;;23.85;55.26
10518;BME280;5307;42.548;22.968;2022-09-03T10:45:20;93947.22;;;23.78;56.62
10518;BME280;5307;42.548;22.968;2022-09-03T10:50:55;93953.66;;;24.50;57.12
10518;BME280;5307;42.548;22.968;2022-09-03T10:53:36;93953.84;;;24.92;54.24
10518;BME280;5307;42.548;22.968;2022-09-03T10:56:11;93950.19;;;24.70;53.80
10518;BME280;5307;42.548;22.968;2022-09-03T10:58:57;93957.00;;;23.71;54.33
10518;BME280;5307;42.548;22.968;2022-09-03T11:01:35;93963.63;;;24.72;52.85
10518;BME280;5307;42.548;22.968;2022-09-03T11:04:21;93961.72;;;24.08;53.99
10518;BME280;5307;42.548;22.968;2022-09-03T11:06:56;93967.22;;;23.82;55.77
10518;BME280;5307;42.548;22.968;2022-09-03T11:09:30;93966.09;;;23.72;56.85
10518;BME280;5307;42.548;22.968;2022-09-03T11:12:03;93965.94;;;23.83;57.50
10518;BME280;5307;42.548;22.968;2022-09-03T11:14:34;93956.44;;;23.73;57.04
10518;BME280;5307;42.548;22.968;2022-09-03T11:17:08;93965.81;;;23.56;57.07
10518;BME280;5307;42.548;22.968;2022-09-03T11:19:43;93960.53;;;23.72;56.94
10518;BME280;5307;42.548;22.968;2022-09-03T11:22:14;93950.16;;;23.34;56.33
10518;BME280;5307;42.548;22.968;2022-09-03T11:24:44;93958.97;;;23.57;54.66
10518;BME280;5307;42.548;22.968;2022-09-03T11:30:38;93956.34;;;23.65;57.37
10518;BME280;5307;42.548;22.968;2022-09-03T11:33:26;93950.81;;;23.91;56.97
10518;BME280;5307;42.548;22.968;2022-09-03T11:35:56;93953.97;;;24.01;59.15
10518;BME280;5307;42.548;22.968;2022-09-03T11:38:27;93957.56;;;23.83;58.61
10518;BME280;5307;42.548;22.968;2022-09-03T11:41:02;93955.28;;;24.13;59.04
10518;BME280;5307;42.548;22.968;2022-09-03T11:43:30;93966.63;;;24.02;55.90
10518;BME280;5307;42.548;22.968;2022-09-03T11:46:02;93955.22;;;23.87;58.42
10518;BME280;5307;42.548;22.968;2022-09-03T11:48:36;93962.75;;;24.05;56.55
10518;BME280;5307;42.548;22.968;2022-09-03T11:51:17;93958.06;;;23.68;56.48
10518;BME280;5307;42.548;22.968;2022-09-03T11:53:54;93959.50;;;22.99;57.41
10518;BME280;5307;42.548;22.968;2022-09-03T11:56:22;93963.50;;;23.42;57.30
10518;BME280;5307;42.548;22.968;2022-09-03T11:59:00;93955.72;;;23.53;56.39
10518;BME280;5307;42.548;22.968;2022-09-03T12:01:28;93952.66;;;23.38;57.03
10518;BME280;5307;42.548;22.968;2022-09-03T12:03:59;93954.63;;;23.24;56.13
10518;BME280;5307;42.548;22.968;2022-09-03T12:06:40;93948.84;;;23.35;56.93
10518;BME280;5307;42.548;22.968;2022-09-03T12:09:25;93959.03;;;23.33;56.91
10518;BME280;5307;42.548;22.968;2022-09-03T12:12:10;93941.59;;;23.14;56.45
10518;BME280;5307;42.548;22.968;2022-09-03T12:14:45;93939.31;;;23.12;55.66
10518;BME280;5307;42.548;22.968;2022-09-03T12:17:26;93941.41;;;22.87;56.98
10518;BME280;5307;42.548;22.968;2022-09-03T12:19:55;93935.53;;;23.66;57.97
10518;BME280;5307;42.548;22.968;2022-09-03T12:22:25;93935.22;;;23.69;59.53
10518;BME280;5307;42.548;22.968;2022-09-03T12:24:54;93931.63;;;22.99;56.08
10518;BME280;5307;42.548;22.968;2022-09-03T12:27:24;93928.72;;;23.10;55.73
10518;BME280;5307;42.548;22.968;2022-09-03T12:29:53;93932.09;;;23.03;56.20
10518;BME280;5307;42.548;22.968;2022-09-03T12:32:25;93936.91;;;23.40;56.03
10518;BME280;5307;42.548;22.968;2022-09-03T12:34:53;93927.44;;;23.62;58.91
10518;BME280;5307;42.548;22.968;2022-09-03T12:37:22;93928.78;;;23.24;56.89
10518;BME280;5307;42.548;22.968;2022-09-03T12:39:50;93941.19;;;23.04;56.74
10518;BME280;5307;42.548;22.968;2022-09-03T12:42:23;93922.13;;;23.08;56.69
10518;BME280;5307;42.548;22.968;2022-09-03T12:44:50;93919.59;;;23.10;55.96
10518;BME280;5307;42.548;22.968;2022-09-03T12:47:19;93927.28;;;23.23;56.33
10518;BME280;5307;42.548;22.968;2022-09-03T12:49:47;93915.31;;;23.60;58.33
10518;BME280;5307;42.548;22.968;2022-09-03T12:52:17;93915.19;;;23.52;58.60
10518;BME280;5307;42.548;22.968;2022-09-03T13:01:48;93911.88;;;23.35;56.93
10518;BME280;5307;42.548;22.968;2022-09-03T13:10:35;93916.34;;;22.87;56.26
10518;BME280;5307;42.548;22.968;2022-09-03T13:13:20;93908.31;;;22.84;57.03
10518;BME280;5307;42.548;22.968;2022-09-03T13:16:27;93903.38;;;23.27;58.63
10518;BME280;5307;42.548;22.968;2022-09-03T13:19:04;93901.59;;;23.11;57.84
10518;BME280;5307;42.548;22.968;2022-09-03T13:21:40;93904.34;;;22.73;57.16
10518;BME280;5307;42.548;22.968;2022-09-03T13:24:22;93905.22;;;22.87;58.15
10518;BME280;5307;42.548;22.968;2022-09-03T13:27:01;93893.78;;;23.09;59.40
10518;BME280;5307;42.548;22.968;2022-09-03T13:29:47;93895.44;;;22.99;57.18
10518;BME280;5307;42.548;22.968;2022-09-03T13:32:26;93893.53;;;23.26;59.46
10518;BME280;5307;42.548;22.968;2022-09-03T13:34:59;93890.50;;;22.68;58.12
10518;BME280;5307;42.548;22.968;2022-09-03T13:37:33;93890.84;;;22.83;57.86
10518;BME280;5307;42.548;22.968;2022-09-03T13:40:11;93889.25;;;22.88;57.81
10518;BME280;5307;42.548;22.968;2022-09-03T13:42:43;93894.47;;;22.97;58.17